sensor_id;sensor_type;location;lat;lon;timestamp;P1;durP1;ratioP1;P2;durP2;ratioP2
1328;SDS011;658;48.820;9.354;2022-12-18T00:02:56;8.43;;;7.83;;
1328;SDS011;658;48.820;9.354;2022-12-18T00:06:56;9.10;;;8.40;;
1328;SDS011;658;48.820;9.354;2022-12-18T00:11:02;8.80;;;8.20;;
1328;SDS011;658;48.820;9.354;2022-12-18T00:15:04;9.60;;;8.77;;
1328;SDS011;658;48.820;9.354;2022-12-18T00:19:05;8.67;;;7.97;;
1328;SDS011;658;48.820;9.354;2022-12-18T00:23:07;9.03;;;8.33;;
1328;SDS011;658;48.820;9.354;2022-12-18T00:27:07;9.13;;;8.43;;
1328;SDS011;658;48.820;9.354;2022-12-18T00:31:09;9.73;;;9.03;;
1328;SDS011;658;48.820;9.354;2022-12-18T00:35:12;9.27;;;8.57;;
1328;SDS011;658;48.820;9.354;2022-12-18T00:39:12;9.60;;;8.80;;
1328;SDS011;658;48.820;9.354;2022-12-18T00:43:13;10.20;;;9.37;;
1328;SDS011;658;48.820;9.354;2022-12-18T00:47:13;9.50;;;8.70;;
1328;SDS011;658;48.820;9.354;2022-12-18T00:51:14;8.83;;;8.23;;
1328;SDS011;658;48.820;9.354;2022-12-18T00:55:15;9.90;;;9.10;;
1328;SDS011;658;48.820;9.354;2022-12-18T00:59:19;10.43;;;9.47;;
1328;SDS011;658;48.820;9.354;2022-12-18T01:03:19;9.53;;;8.63;;
1328;SDS011;658;48.820;9.354;2022-12-18T01:07:20;10.57;;;9.67;;
1328;SDS011;658;48.820;9.354;2022-12-18T01:11:21;10.13;;;9.33;;
1328;SDS011;658;48.820;9.354;2022-12-18T01:15:22;9.00;;;8.30;;
1328;SDS011;658;48.820;9.354;2022-12-18T01:19:22;9.60;;;8.90;;
1328;SDS011;658;48.820;9.354;2022-12-18T01:23:26;10.30;;;9.50;;
1328;SDS011;658;48.820;9.354;2022-12-18T01:27:27;9.53;;;8.73;;
1328;SDS011;658;48.820;9.354;2022-12-18T01:31:29;9.97;;;9.17;;
1328;SDS011;658;48.820;9.354;2022-12-18T01:35:30;9.70;;;8.90;;
1328;SDS011;658;48.820;9.354;2022-12-18T01:39:32;10.37;;;9.37;;
1328;SDS011;658;48.820;9.354;2022-12-18T01:43:43;10.63;;;9.70;;
1328;SDS011;658;48.820;9.354;2022-12-18T01:47:46;10.27;;;9.47;;
1328;SDS011;658;48.820;9.354;2022-12-18T01:51:49;9.90;;;9.10;;
1328;SDS011;658;48.820;9.354;2022-12-18T01:55:50;10.10;;;9.40;;
1328;SDS011;658;48.820;9.354;2022-12-18T01:59:53;10.40;;;9.60;;
1328;SDS011;658;48.820;9.354;2022-12-18T02:08:20;10.57;;;9.77;;
1328;SDS011;658;48.820;9.354;2022-12-18T02:13:10;10.20;;;9.40;;
1328;SDS011;658;48.820;9.354;2022-12-18T02:30:27;11.67;;;10.77;;
1328;SDS011;658;48.820;9.354;2022-12-18T02:34:31;10.10;;;9.40;;
1328;SDS011;658;48.820;9.354;2022-12-18T02:38:36;9.93;;;9.03;;
1328;SDS011;658;48.820;9.354;2022-12-18T02:42:37;11.00;;;10.10;;
1328;SDS011;658;48.820;9.354;2022-12-18T02:46:39;10.80;;;9.90;;
1328;SDS011;658;48.820;9.354;2022-12-18T02:50:45;9.97;;;9.27;;
1328;SDS011;658;48.820;9.354;2022-12-18T02:59:27;10.43;;;9.53;;
1328;SDS011;658;48.820;9.354;2022-12-18T03:03:36;10.90;;;10.10;;
1328;SDS011;658;48.820;9.354;2022-12-18T03:16:44;10.97;;;10.13;;
1328;SDS011;658;48.820;9.354;2022-12-18T03:20:47;10.40;;;9.60;;
1328;SDS011;658;48.820;9.354;2022-12-18T03:24:51;11.23;;;10.33;;
1328;SDS011;658;48.820;9.354;2022-12-18T03:28:57;11.13;;;10.23;;
1328;SDS011;658;48.820;9.354;2022-12-18T03:33:02;10.90;;;10.00;;
1328;SDS011;658;48.820;9.354;2022-12-18T03:37:21;12.07;;;11.10;;
1328;SDS011;658;48.820;9.354;2022-12-18T03:41:32;10.77;;;9.97;;
1328;SDS011;658;48.820;9.354;2022-12-18T03:45:48;11.10;;;10.10;;
1328;SDS011;658;48.820;9.354;2022-12-18T03:49:56;11.30;;;10.40;;
1328;SDS011;658;48.820;9.354;2022-12-18T03:54:02;11.33;;;10.47;;
1328;SDS011;658;48.820;9.354;2022-12-18T03:58:05;10.33;;;9.53;;
1328;SDS011;658;48.820;9.354;2022-12-18T04:02:07;10.73;;;9.83;;
1328;SDS011;658;48.820;9.354;2022-12-18T04:06:09;9.60;;;8.90;;
1328;SDS011;658;48.820;9.354;2022-12-18T04:10:11;11.40;;;10.40;;
1328;SDS011;658;48.820;9.354;2022-12-18T04:14:13;10.30;;;9.50;;
1328;SDS011;658;48.820;9.354;2022-12-18T04:18:14;11.37;;;10.47;;
1328;SDS011;658;48.820;9.354;2022-12-18T04:22:15;11.67;;;10.67;;
1328;SDS011;658;48.820;9.354;2022-12-18T04:26:15;10.53;;;9.73;;
1328;SDS011;658;48.820;9.354;2022-12-18T04:30:16;10.97;;;10.07;;
1328;SDS011;658;48.820;9.354;2022-12-18T04:34:17;10.43;;;9.60;;
1328;SDS011;658;48.820;9.354;2022-12-18T04:38:17;10.67;;;9.77;;
1328;SDS011;658;48.820;9.354;2022-12-18T04:42:18;11.73;;;10.83;;
1328;SDS011;658;48.820;9.354;2022-12-18T04:46:19;10.77;;;9.87;;
1328;SDS011;658;48.820;9.354;2022-12-18T04:50:19;10.87;;;10.07;;
1328;SDS011;658;48.820;9.354;2022-12-18T04:54:20;11.20;;;10.30;;
1328;SDS011;658;48.820;9.354;2022-12-18T04:58:20;11.00;;;10.10;;
1328;SDS011;658;48.820;9.354;2022-12-18T05:02:21;10.60;;;9.80;;
1328;SDS011;658;48.820;9.354;2022-12-18T05:06:21;10.53;;;9.67;;
1328;SDS011;658;48.820;9.354;2022-12-18T05:10:22;10.33;;;9.50;;
1328;SDS011;658;48.820;9.354;2022-12-18T05:14:23;10.43;;;9.63;;
1328;SDS011;658;48.820;9.354;2022-12-18T05:18:23;10.73;;;9.83;;
1328;SDS011;658;48.820;9.354;2022-12-18T05:22:24;10.73;;;9.83;;
1328;SDS011;658;48.820;9.354;2022-12-18T05:26:25;10.60;;;9.80;;
1328;SDS011;658;48.820;9.354;2022-12-18T05:30:26;10.27;;;9.47;;
1328;SDS011;658;48.820;9.354;2022-12-18T05:34:27;10.60;;;9.70;;
1328;SDS011;658;48.820;9.354;2022-12-18T05:38:28;10.27;;;9.47;;
1328;SDS011;658;48.820;9.354;2022-12-18T05:42:30;10.90;;;10.00;;
1328;SDS011;658;48.820;9.354;2022-12-18T05:46:30;10.67;;;9.87;;
1328;SDS011;658;48.820;9.354;2022-12-18T05:50:38;9.87;;;9.17;;
1328;SDS011;658;48.820;9.354;2022-12-18T05:54:41;10.67;;;9.87;;
1328;SDS011;658;48.820;9.354;2022-12-18T05:58:42;11.03;;;10.13;;
1328;SDS011;658;48.820;9.354;2022-12-18T06:02:45;10.20;;;9.40;;
1328;SDS011;658;48.820;9.354;2022-12-18T06:06:47;10.40;;;9.57;;
1328;SDS011;658;48.820;9.354;2022-12-18T06:10:51;10.40;;;9.60;;
1328;SDS011;658;48.820;9.354;2022-12-18T06:14:52;10.33;;;9.50;;
1328;SDS011;658;48.820;9.354;2022-12-18T06:18:53;9.90;;;9.10;;
1328;SDS011;658;48.820;9.354;2022-12-18T06:22:59;10.77;;;9.87;;
1328;SDS011;658;48.820;9.354;2022-12-18T06:27:00;10.50;;;9.70;;
1328;SDS011;658;48.820;9.354;2022-12-18T06:31:02;10.30;;;9.50;;
1328;SDS011;658;48.820;9.354;2022-12-18T06:35:04;11.10;;;10.20;;
1328;SDS011;658;48.820;9.354;2022-12-18T06:39:05;11.23;;;10.20;;
1328;SDS011;658;48.820;9.354;2022-12-18T06:43:05;9.97;;;9.27;;
1328;SDS011;658;48.820;9.354;2022-12-18T06:47:06;10.60;;;9.80;;
1328;SDS011;658;48.820;9.354;2022-12-18T06:51:06;10.43;;;9.63;;
1328;SDS011;658;48.820;9.354;2022-12-18T06:55:07;10.90;;;10.00;;
1328;SDS011;658;48.820;9.354;2022-12-18T06:59:08;10.47;;;9.67;;
1328;SDS011;658;48.820;9.354;2022-12-18T07:03:08;10.17;;;9.37;;
1328;SDS011;658;48.820;9.354;2022-12-18T07:07:10;10.77;;;9.97;;
1328;SDS011;658;48.820;9.354;2022-12-18T07:11:11;10.67;;;9.87;;
1328;SDS011;658;48.820;9.354;2022-12-18T07:15:12;10.67;;;9.67;;
1328;SDS011;658;48.820;9.354;2022-12-18T07:19:12;9.60;;;8.80;;
1328;SDS011;658;48.820;9.354;2022-12-18T07:23:13;10.70;;;9.80;;
1328;SDS011;658;48.820;9.354;2022-12-18T07:27:14;10.50;;;9.63;;
1328;SDS011;658;48.820;9.354;2022-12-18T07:31:19;9.57;;;8.83;;
1328;SDS011;658;48.820;9.354;2022-12-18T07:35:21;9.87;;;9.13;;
1328;SDS011;658;48.820;9.354;2022-12-18T07:39:22;10.50;;;9.63;;
1328;SDS011;658;48.820;9.354;2022-12-18T07:43:22;9.90;;;9.10;;
1328;SDS011;658;48.820;9.354;2022-12-18T07:47:23;9.83;;;9.03;;
1328;SDS011;658;48.820;9.354;2022-12-18T07:51:23;9.90;;;9.10;;
1328;SDS011;658;48.820;9.354;2022-12-18T07:55:24;10.13;;;9.23;;
1328;SDS011;658;48.820;9.354;2022-12-18T07:59:26;9.80;;;9.03;;
1328;SDS011;658;48.820;9.354;2022-12-18T08:03:26;9.07;;;8.33;;
1328;SDS011;658;48.820;9.354;2022-12-18T08:07:27;10.23;;;9.43;;
1328;SDS011;658;48.820;9.354;2022-12-18T08:11:28;10.80;;;9.90;;
1328;SDS011;658;48.820;9.354;2022-12-18T08:15:29;10.33;;;9.47;;
1328;SDS011;658;48.820;9.354;2022-12-18T08:19:29;10.57;;;9.73;;
1328;SDS011;658;48.820;9.354;2022-12-18T08:23:30;9.70;;;9.00;;
1328;SDS011;658;48.820;9.354;2022-12-18T08:27:30;10.27;;;9.47;;
1328;SDS011;658;48.820;9.354;2022-12-18T08:31:31;10.33;;;9.43;;
1328;SDS011;658;48.820;9.354;2022-12-18T08:35:34;9.63;;;8.83;;
1328;SDS011;658;48.820;9.354;2022-12-18T08:39:36;9.77;;;8.97;;
1328;SDS011;658;48.820;9.354;2022-12-18T08:43:37;9.90;;;9.10;;
1328;SDS011;658;48.820;9.354;2022-12-18T08:47:56;10.83;;;9.90;;
1328;SDS011;658;48.820;9.354;2022-12-18T08:51:57;11.23;;;10.33;;
1328;SDS011;658;48.820;9.354;2022-12-18T08:55:58;11.43;;;10.47;;
1328;SDS011;658;48.820;9.354;2022-12-18T08:59:58;10.93;;;10.03;;
1328;SDS011;658;48.820;9.354;2022-12-18T09:03:59;11.57;;;10.50;;
1328;SDS011;658;48.820;9.354;2022-12-18T09:07:59;11.13;;;10.30;;
1328;SDS011;658;48.820;9.354;2022-12-18T09:12:00;12.67;;;11.67;;
1328;SDS011;658;48.820;9.354;2022-12-18T09:16:02;11.80;;;10.70;;
1328;SDS011;658;48.820;9.354;2022-12-18T09:20:04;11.00;;;10.17;;
1328;SDS011;658;48.820;9.354;2022-12-18T09:24:05;11.60;;;10.50;;
1328;SDS011;658;48.820;9.354;2022-12-18T09:28:09;10.97;;;10.10;;
1328;SDS011;658;48.820;9.354;2022-12-18T09:32:14;11.53;;;10.43;;
1328;SDS011;658;48.820;9.354;2022-12-18T09:36:15;11.40;;;10.40;;
1328;SDS011;658;48.820;9.354;2022-12-18T09:40:20;11.07;;;10.20;;
1328;SDS011;658;48.820;9.354;2022-12-18T09:44:27;11.90;;;10.90;;
1328;SDS011;658;48.820;9.354;2022-12-18T09:48:44;11.30;;;10.40;;
1328;SDS011;658;48.820;9.354;2022-12-18T09:52:50;11.10;;;10.10;;
1328;SDS011;658;48.820;9.354;2022-12-18T09:56:53;10.73;;;9.87;;
1328;SDS011;658;48.820;9.354;2022-12-18T10:00:54;11.10;;;10.20;;
1328;SDS011;658;48.820;9.354;2022-12-18T10:05:00;10.20;;;9.40;;
1328;SDS011;658;48.820;9.354;2022-12-18T10:21:30;10.90;;;10.00;;
1328;SDS011;658;48.820;9.354;2022-12-18T10:25:52;11.77;;;10.70;;
1328;SDS011;658;48.820;9.354;2022-12-18T10:29:57;10.90;;;10.00;;
1328;SDS011;658;48.820;9.354;2022-12-18T10:33:58;11.70;;;10.80;;
1328;SDS011;658;48.820;9.354;2022-12-18T10:38:20;11.10;;;10.10;;
1328;SDS011;658;48.820;9.354;2022-12-18T10:42:20;10.90;;;10.00;;
1328;SDS011;658;48.820;9.354;2022-12-18T10:46:21;12.23;;;11.33;;
1328;SDS011;658;48.820;9.354;2022-12-18T10:50:25;11.83;;;10.73;;
1328;SDS011;658;48.820;9.354;2022-12-18T10:54:32;11.40;;;10.40;;
1328;SDS011;658;48.820;9.354;2022-12-18T10:58:42;11.37;;;10.40;;
1328;SDS011;658;48.820;9.354;2022-12-18T11:02:56;10.73;;;9.93;;
1328;SDS011;658;48.820;9.354;2022-12-18T11:06:58;10.60;;;9.70;;
1328;SDS011;658;48.820;9.354;2022-12-18T11:11:00;11.10;;;10.23;;
1328;SDS011;658;48.820;9.354;2022-12-18T11:15:01;11.03;;;10.07;;
1328;SDS011;658;48.820;9.354;2022-12-18T11:19:15;10.87;;;9.97;;
1328;SDS011;658;48.820;9.354;2022-12-18T11:23:20;10.47;;;9.57;;
1328;SDS011;658;48.820;9.354;2022-12-18T11:27:24;10.10;;;9.30;;
1328;SDS011;658;48.820;9.354;2022-12-18T11:31:27;9.60;;;8.80;;
1328;SDS011;658;48.820;9.354;2022-12-18T11:39:36;10.43;;;9.63;;
1328;SDS011;658;48.820;9.354;2022-12-18T11:43:54;9.73;;;8.93;;
1328;SDS011;658;48.820;9.354;2022-12-18T11:52:38;8.73;;;8.03;;
1328;SDS011;658;48.820;9.354;2022-12-18T11:56:46;9.10;;;8.40;;
1328;SDS011;658;48.820;9.354;2022-12-18T12:05:35;10.13;;;9.13;;
1328;SDS011;658;48.820;9.354;2022-12-18T12:22:53;8.03;;;7.23;;
1328;SDS011;658;48.820;9.354;2022-12-18T12:40:20;7.97;;;7.43;;
1328;SDS011;658;48.820;9.354;2022-12-18T12:44:25;8.07;;;7.30;;
1328;SDS011;658;48.820;9.354;2022-12-18T12:52:54;8.10;;;7.40;;
1328;SDS011;658;48.820;9.354;2022-12-18T13:01:22;7.23;;;6.63;;
1328;SDS011;658;48.820;9.354;2022-12-18T13:10:24;7.40;;;6.80;;
1328;SDS011;658;48.820;9.354;2022-12-18T13:14:31;7.60;;;7.00;;
1328;SDS011;658;48.820;9.354;2022-12-18T13:18:37;6.97;;;6.47;;
1328;SDS011;658;48.820;9.354;2022-12-18T13:22:42;7.63;;;7.03;;
1328;SDS011;658;48.820;9.354;2022-12-18T13:26:43;7.83;;;7.13;;
1328;SDS011;658;48.820;9.354;2022-12-18T13:39:30;7.57;;;6.97;;
1328;SDS011;658;48.820;9.354;2022-12-18T13:43:45;7.20;;;6.70;;
1328;SDS011;658;48.820;9.354;2022-12-18T13:47:50;7.90;;;7.00;;
1328;SDS011;658;48.820;9.354;2022-12-18T13:51:51;6.87;;;6.37;;
1328;SDS011;658;48.820;9.354;2022-12-18T13:55:56;6.70;;;6.20;;
1328;SDS011;658;48.820;9.354;2022-12-18T13:59:57;6.40;;;5.90;;
1328;SDS011;658;48.820;9.354;2022-12-18T14:04:17;6.93;;;6.33;;
1328;SDS011;658;48.820;9.354;2022-12-18T14:08:20;6.97;;;6.27;;
1328;SDS011;658;48.820;9.354;2022-12-18T14:12:25;8.07;;;7.37;;
1328;SDS011;658;48.820;9.354;2022-12-18T14:16:54;6.30;;;5.80;;
1328;SDS011;658;48.820;9.354;2022-12-18T14:20:59;7.10;;;6.50;;
1328;SDS011;658;48.820;9.354;2022-12-18T14:25:10;7.40;;;6.80;;
1328;SDS011;658;48.820;9.354;2022-12-18T14:29:26;6.77;;;6.17;;
1328;SDS011;658;48.820;9.354;2022-12-18T14:33:28;6.87;;;6.37;;
1328;SDS011;658;48.820;9.354;2022-12-18T14:37:29;6.53;;;6.03;;
1328;SDS011;658;48.820;9.354;2022-12-18T14:41:29;6.53;;;5.93;;
1328;SDS011;658;48.820;9.354;2022-12-18T14:45:43;6.60;;;6.07;;
1328;SDS011;658;48.820;9.354;2022-12-18T14:49:44;6.67;;;6.10;;
1328;SDS011;658;48.820;9.354;2022-12-18T14:53:46;6.03;;;5.53;;
1328;SDS011;658;48.820;9.354;2022-12-18T14:57:52;6.47;;;5.97;;
1328;SDS011;658;48.820;9.354;2022-12-18T15:10:34;6.27;;;5.77;;
1328;SDS011;658;48.820;9.354;2022-12-18T15:14:38;6.20;;;5.70;;
1328;SDS011;658;48.820;9.354;2022-12-18T15:18:41;5.87;;;5.47;;
1328;SDS011;658;48.820;9.354;2022-12-18T15:22:45;6.03;;;5.43;;
1328;SDS011;658;48.820;9.354;2022-12-18T15:26:47;6.30;;;5.80;;
1328;SDS011;658;48.820;9.354;2022-12-18T15:35:37;6.93;;;5.83;;
1328;SDS011;658;48.820;9.354;2022-12-18T15:39:38;4.97;;;4.60;;
1328;SDS011;658;48.820;9.354;2022-12-18T15:43:39;5.43;;;5.00;;
1328;SDS011;658;48.820;9.354;2022-12-18T15:47:40;5.33;;;4.93;;
1328;SDS011;658;48.820;9.354;2022-12-18T15:51:43;6.10;;;5.57;;
1328;SDS011;658;48.820;9.354;2022-12-18T15:55:52;5.83;;;5.33;;
1328;SDS011;658;48.820;9.354;2022-12-18T16:00:11;6.10;;;5.50;;
1328;SDS011;658;48.820;9.354;2022-12-18T16:04:13;5.83;;;5.33;;
1328;SDS011;658;48.820;9.354;2022-12-18T16:08:15;5.90;;;5.40;;
1328;SDS011;658;48.820;9.354;2022-12-18T16:12:17;5.20;;;4.80;;
1328;SDS011;658;48.820;9.354;2022-12-18T16:16:20;6.17;;;5.67;;
1328;SDS011;658;48.820;9.354;2022-12-18T16:20:21;5.27;;;4.87;;
1328;SDS011;658;48.820;9.354;2022-12-18T16:24:24;19.50;;;17.60;;
1328;SDS011;658;48.820;9.354;2022-12-18T16:28:26;13.00;;;11.80;;
1328;SDS011;658;48.820;9.354;2022-12-18T16:32:26;9.33;;;8.53;;
1328;SDS011;658;48.820;9.354;2022-12-18T16:36:27;8.77;;;7.87;;
1328;SDS011;658;48.820;9.354;2022-12-18T16:40:27;8.73;;;7.90;;
1328;SDS011;658;48.820;9.354;2022-12-18T16:44:32;9.00;;;7.47;;
1328;SDS011;658;48.820;9.354;2022-12-18T16:48:33;7.73;;;6.93;;
1328;SDS011;658;48.820;9.354;2022-12-18T16:52:34;6.83;;;6.33;;
1328;SDS011;658;48.820;9.354;2022-12-18T16:56:35;7.07;;;6.40;;
1328;SDS011;658;48.820;9.354;2022-12-18T17:00:37;6.73;;;6.20;;
1328;SDS011;658;48.820;9.354;2022-12-18T17:04:40;5.90;;;5.50;;
1328;SDS011;658;48.820;9.354;2022-12-18T17:08:41;6.13;;;5.63;;
1328;SDS011;658;48.820;9.354;2022-12-18T17:12:42;6.50;;;5.77;;
1328;SDS011;658;48.820;9.354;2022-12-18T17:16:42;5.93;;;5.43;;
1328;SDS011;658;48.820;9.354;2022-12-18T17:20:43;5.53;;;5.10;;
1328;SDS011;658;48.820;9.354;2022-12-18T17:24:45;6.00;;;5.60;;
1328;SDS011;658;48.820;9.354;2022-12-18T17:28:46;5.97;;;5.47;;
1328;SDS011;658;48.820;9.354;2022-12-18T17:32:47;5.53;;;5.03;;
1328;SDS011;658;48.820;9.354;2022-12-18T17:36:47;5.23;;;4.83;;
1328;SDS011;658;48.820;9.354;2022-12-18T17:40:48;5.50;;;5.10;;
1328;SDS011;658;48.820;9.354;2022-12-18T17:44:48;5.37;;;4.97;;
1328;SDS011;658;48.820;9.354;2022-12-18T17:48:49;5.37;;;4.93;;
1328;SDS011;658;48.820;9.354;2022-12-18T17:52:54;5.60;;;5.20;;
1328;SDS011;658;48.820;9.354;2022-12-18T17:56:55;4.80;;;4.50;;
1328;SDS011;658;48.820;9.354;2022-12-18T18:00:55;5.50;;;5.10;;
1328;SDS011;658;48.820;9.354;2022-12-18T18:04:56;5.13;;;4.77;;
1328;SDS011;658;48.820;9.354;2022-12-18T18:08:57;5.10;;;4.70;;
1328;SDS011;658;48.820;9.354;2022-12-18T18:12:57;5.23;;;4.83;;
1328;SDS011;658;48.820;9.354;2022-12-18T18:17:17;5.33;;;4.83;;
1328;SDS011;658;48.820;9.354;2022-12-18T18:21:17;5.10;;;4.70;;
1328;SDS011;658;48.820;9.354;2022-12-18T18:25:18;5.00;;;4.60;;
1328;SDS011;658;48.820;9.354;2022-12-18T18:29:20;4.93;;;4.50;;
1328;SDS011;658;48.820;9.354;2022-12-18T18:33:22;4.87;;;4.53;;
1328;SDS011;658;48.820;9.354;2022-12-18T18:37:22;4.83;;;4.43;;
1328;SDS011;658;48.820;9.354;2022-12-18T18:41:23;4.70;;;4.40;;
1328;SDS011;658;48.820;9.354;2022-12-18T18:45:23;5.00;;;4.63;;
1328;SDS011;658;48.820;9.354;2022-12-18T18:49:24;4.87;;;4.47;;
1328;SDS011;658;48.820;9.354;2022-12-18T18:53:26;4.70;;;4.40;;
1328;SDS011;658;48.820;9.354;2022-12-18T18:57:27;5.70;;;5.30;;
1328;SDS011;658;48.820;9.354;2022-12-18T19:01:28;3.90;;;3.60;;
1328;SDS011;658;48.820;9.354;2022-12-18T19:05:30;4.33;;;3.93;;
1328;SDS011;658;48.820;9.354;2022-12-18T19:09:30;4.60;;;4.30;;
1328;SDS011;658;48.820;9.354;2022-12-18T19:13:32;4.83;;;4.53;;
1328;SDS011;658;48.820;9.354;2022-12-18T19:17:33;4.80;;;4.40;;
1328;SDS011;658;48.820;9.354;2022-12-18T19:21:35;5.00;;;4.60;;
1328;SDS011;658;48.820;9.354;2022-12-18T19:25:37;5.70;;;4.60;;
1328;SDS011;658;48.820;9.354;2022-12-18T19:29:38;4.87;;;4.47;;
1328;SDS011;658;48.820;9.354;2022-12-18T19:33:40;4.60;;;4.20;;
1328;SDS011;658;48.820;9.354;2022-12-18T19:37:42;4.60;;;4.30;;
1328;SDS011;658;48.820;9.354;2022-12-18T19:41:43;5.00;;;4.50;;
1328;SDS011;658;48.820;9.354;2022-12-18T19:45:44;6.03;;;4.57;;
1328;SDS011;658;48.820;9.354;2022-12-18T19:49:44;4.97;;;4.50;;
1328;SDS011;658;48.820;9.354;2022-12-18T19:53:45;4.50;;;4.20;;
1328;SDS011;658;48.820;9.354;2022-12-18T19:57:46;4.53;;;4.13;;
1328;SDS011;658;48.820;9.354;2022-12-18T20:01:47;4.37;;;3.97;;
1328;SDS011;658;48.820;9.354;2022-12-18T20:05:49;4.47;;;4.07;;
1328;SDS011;658;48.820;9.354;2022-12-18T20:09:49;5.20;;;4.80;;
1328;SDS011;658;48.820;9.354;2022-12-18T20:13:50;4.07;;;3.70;;
1328;SDS011;658;48.820;9.354;2022-12-18T20:17:51;4.27;;;3.97;;
1328;SDS011;658;48.820;9.354;2022-12-18T20:21:52;4.30;;;4.00;;
1328;SDS011;658;48.820;9.354;2022-12-18T20:25:53;4.40;;;4.00;;
1328;SDS011;658;48.820;9.354;2022-12-18T20:29:54;3.80;;;3.50;;
1328;SDS011;658;48.820;9.354;2022-12-18T20:33:55;4.50;;;4.20;;
1328;SDS011;658;48.820;9.354;2022-12-18T20:37:56;4.70;;;4.23;;
1328;SDS011;658;48.820;9.354;2022-12-18T20:41:57;4.57;;;4.20;;
1328;SDS011;658;48.820;9.354;2022-12-18T20:46:04;5.13;;;3.73;;
1328;SDS011;658;48.820;9.354;2022-12-18T20:50:06;4.77;;;4.30;;
1328;SDS011;658;48.820;9.354;2022-12-18T20:54:07;4.10;;;3.70;;
1328;SDS011;658;48.820;9.354;2022-12-18T20:58:08;4.40;;;4.10;;
1328;SDS011;658;48.820;9.354;2022-12-18T21:02:09;4.27;;;3.97;;
1328;SDS011;658;48.820;9.354;2022-12-18T21:06:12;5.03;;;3.87;;
1328;SDS011;658;48.820;9.354;2022-12-18T21:10:14;4.17;;;3.87;;
1328;SDS011;658;48.820;9.354;2022-12-18T21:14:19;4.40;;;4.00;;
1328;SDS011;658;48.820;9.354;2022-12-18T21:18:21;4.03;;;3.70;;
1328;SDS011;658;48.820;9.354;2022-12-18T21:22:22;4.70;;;4.30;;
1328;SDS011;658;48.820;9.354;2022-12-18T21:26:24;3.90;;;3.60;;
1328;SDS011;658;48.820;9.354;2022-12-18T21:30:26;4.33;;;4.03;;
1328;SDS011;658;48.820;9.354;2022-12-18T21:34:28;3.80;;;3.50;;
1328;SDS011;658;48.820;9.354;2022-12-18T21:38:29;4.20;;;3.90;;
1328;SDS011;658;48.820;9.354;2022-12-18T21:42:30;4.30;;;4.00;;
1328;SDS011;658;48.820;9.354;2022-12-18T21:46:49;4.33;;;4.03;;
1328;SDS011;658;48.820;9.354;2022-12-18T21:50:50;4.40;;;4.00;;
1328;SDS011;658;48.820;9.354;2022-12-18T21:54:51;4.77;;;4.40;;
1328;SDS011;658;48.820;9.354;2022-12-18T21:58:51;4.20;;;3.90;;
1328;SDS011;658;48.820;9.354;2022-12-18T22:02:52;4.17;;;3.67;;
1328;SDS011;658;48.820;9.354;2022-12-18T22:06:53;4.47;;;4.07;;
1328;SDS011;658;48.820;9.354;2022-12-18T22:10:53;4.20;;;3.90;;
1328;SDS011;658;48.820;9.354;2022-12-18T22:14:54;4.70;;;4.30;;
1328;SDS011;658;48.820;9.354;2022-12-18T22:18:54;4.10;;;3.80;;
1328;SDS011;658;48.820;9.354;2022-12-18T22:22:55;4.17;;;3.87;;
1328;SDS011;658;48.820;9.354;2022-12-18T22:26:56;4.73;;;4.33;;
1328;SDS011;658;48.820;9.354;2022-12-18T22:30:59;4.40;;;4.10;;
1328;SDS011;658;48.820;9.354;2022-12-18T22:35:00;4.90;;;4.30;;
1328;SDS011;658;48.820;9.354;2022-12-18T22:39:02;4.80;;;4.40;;
1328;SDS011;658;48.820;9.354;2022-12-18T22:43:05;5.07;;;4.67;;
1328;SDS011;658;48.820;9.354;2022-12-18T22:47:07;5.03;;;4.57;;
1328;SDS011;658;48.820;9.354;2022-12-18T22:51:15;4.40;;;4.00;;
1328;SDS011;658;48.820;9.354;2022-12-18T22:55:20;4.83;;;4.53;;
1328;SDS011;658;48.820;9.354;2022-12-18T22:59:21;4.93;;;4.47;;
1328;SDS011;658;48.820;9.354;2022-12-18T23:03:22;4.43;;;4.13;;
1328;SDS011;658;48.820;9.354;2022-12-18T23:07:22;4.40;;;4.10;;
1328;SDS011;658;48.820;9.354;2022-12-18T23:11:23;4.67;;;4.27;;
1328;SDS011;658;48.820;9.354;2022-12-18T23:15:25;4.50;;;4.20;;
1328;SDS011;658;48.820;9.354;2022-12-18T23:19:25;4.90;;;4.50;;
1328;SDS011;658;48.820;9.354;2022-12-18T23:23:26;4.60;;;4.23;;
1328;SDS011;658;48.820;9.354;2022-12-18T23:27:26;4.03;;;3.73;;
1328;SDS011;658;48.820;9.354;2022-12-18T23:31:28;5.00;;;4.60;;
1328;SDS011;658;48.820;9.354;2022-12-18T23:35:30;4.80;;;4.40;;
1328;SDS011;658;48.820;9.354;2022-12-18T23:39:31;4.50;;;4.20;;
1328;SDS011;658;48.820;9.354;2022-12-18T23:43:31;4.47;;;4.10;;
1328;SDS011;658;48.820;9.354;2022-12-18T23:47:32;4.30;;;3.90;;
1328;SDS011;658;48.820;9.354;2022-12-18T23:51:33;4.00;;;3.70;;
1328;SDS011;658;48.820;9.354;2022-12-18T23:55:40;4.40;;;4.00;;
1328;SDS011;658;48.820;9.354;2022-12-18T23:59:42;4.90;;;4.50;;
